Santa Teresa Valley (237) Station Data

Red Flag Warning: No
Fire Weather Zone: 250
SDGE Region: Ramona
Lat/Lon: 33.069/-116.762

Observations

Time Wind Speed/Gust Temp(F) RH Fuel Moist Fuel Temp(F) Dewpt(F) Tmax(F) Tmin(F) Accum Precip 10-min Precip SL Press(mb)
4/26 2:40am 140 1 G 3 52° 70% - - 43° 55.7° 50.6° - - -
4/26 2:30am 98 1 G 3 52° 72% - - 43° 55.7° 50.6° - - -
4/26 2:20am 117 1 G 3 51° 73% - - 43° 55.7° 50.6° - - -
4/26 2:10am 276 3 G 4 53° 69% - - 43° 55.7° 52.3° - - -
4/26 2:00am 291 3 G 5 54° 67% - - 43° 55.7° 52.3° - - -
4/26 1:50am 30 2 G 4 55° 64% - - 43° 55.7° 52.3° - - -
4/26 1:40am 59 3 G 5 53° 69% - - 44° 55.7° 52.3° - - -
4/26 1:30am 84 3 G 5 53° 70% - - 44° 55.7° 52.3° - - -
4/26 1:20am 71 3 G 5 54° 70% - - 44° 55.7° 52.3° - - -
4/26 1:10am 63 3 G 5 55° 68% - - 45° 55.7° 52.3° - - -
4/26 1:00am 32 3 G 6 55° 70% - - 45° 55.6° 52.3° - - -
4/26 12:50am 40 4 G 5 54° 73% - - 46° 54.8° 52.3° - - -
4/26 12:40am 41 3 G 6 54° 75% - - 46° 54.6° 52.3° - - -
4/26 12:30am 51 5 G 8 54° 76% - - 46° 54.5° 52.3° - - -
4/26 12:20am 67 4 G 8 53° 77% - - 46° 54.5° 52.3° - - -
4/26 12:10am 42 3 G 5 54° 77% - - 47° 54.5° 53.5° - - -
4/26 12:00am 51 4 G 7 54° 78% - - 47° 61.5° 48.5° - - -
4/25 11:50pm 48 5 G 7 53° 79% - - 47° 61.5° 48.5° - - -
4/25 11:40pm 45 3 G 5 53° 81% - - 47° 61.5° 48.5° - - -
4/25 11:30pm 54 4 G 6 52° 83% - - 47° 61.5° 48.5° - - -
4/25 11:20pm 58 4 G 6 52° 82% - - 47° 61.5° 48.5° - - -
4/25 11:10pm 53 4 G 7 53° 83% - - 47° 61.5° 48.5° - - -
4/25 11:00pm 48 4 G 5 53° 83% - - 47° 61.5° 48.5° - - -
4/25 10:50pm 47 4 G 5 52° 83% - - 47° 61.5° 48.5° - - -
4/25 10:40pm 53 4 G 5 51° 85% - - 47° 61.5° 48.5° - - -
4/25 10:30pm 57 4 G 6 51° 84% - - 47° 61.5° 48.5° - - -
4/25 10:20pm 54 3 G 4 51° 85% - - 46° 61.5° 48.5° - - -
4/25 10:10pm 60 3 G 4 51° 85% - - 46° 61.5° 48.5° - - -
4/25 10:00pm 59 2 G 3 51° 84% - - 46° 61.5° 48.5° - - -
4/25 9:50pm 50 2 G 3 51° 84% - - 46° 61.5° 48.5° - - -
4/25 9:40pm 63 2 G 3 51° 83% - - 46° 61.5° 48.5° - - -
4/25 9:30pm 262 0 G 2 52° 82% - - 46° 61.5° 48.5° - - -
4/25 9:20pm 344 1 G 1 52° 83% - - 46° 61.5° 48.5° - - -
4/25 9:10pm 48 1 G 3 51° 83% - - 46° 61.5° 48.5° - - -
4/25 9:00pm 71 1 G 3 52° 81% - - 46° 61.5° 48.5° - - -
4/25 8:50pm 137 1 G 1 52° 81% - - 46° 61.5° 48.5° - - -
4/25 8:40pm 144 0 G 1 52° 79% - - 46° 61.5° 48.5° - - -
4/25 8:30pm 318 1 G 4 53° 78% - - 46° 61.5° 48.5° - - -
4/25 8:20pm 295 2 G 4 53° 78% - - 47° 61.5° 48.5° - - -
4/25 8:10pm 356 0 G 1 53° 79% - - 47° 61.5° 48.5° - - -
4/25 8:00pm 46 0 G 1 53° 79% - - 47° 61.5° 48.5° - - -
4/25 7:50pm 3 0 G 1 53° 79% - - 47° 61.5° 48.5° - - -
4/25 7:40pm 284 2 G 4 53° 79% - - 47° 61.5° 48.5° - - -
4/25 7:30pm 283 2 G 3 54° 78% - - 47° 61.5° 48.5° - - -
4/25 7:20pm 290 2 G 5 55° 77% - - 48° 61.5° 48.5° - - -
4/25 7:10pm 300 5 G 7 55° 76% - - 48° 61.5° 48.5° - - -
4/25 7:00pm 286 5 G 8 56° 75% - - 48° 61.5° 48.5° - - -
4/25 6:50pm 276 6 G 10 56° 75% - - 48° 61.5° 48.5° - - -
4/25 6:40pm 272 7 G 11 56° 74% - - 48° 61.5° 48.5° - - -
4/25 6:30pm 282 6 G 11 57° 72% - - 48° 61.5° 48.5° - - -
4/25 6:20pm 280 6 G 11 57° 72% - - 48° 61.5° 48.5° - - -
4/25 6:10pm 273 8 G 12 57° 71% - - 48° 61.5° 48.5° - - -
4/25 6:00pm 277 8 G 13 58° 71% - - 49° 61.5° 48.5° - - -
4/25 5:50pm 286 6 G 11 59° 71% - - 49° 61.5° 48.5° - - -
4/25 5:40pm 268 9 G 13 59° 70% - - 49° 61.5° 48.5° - - -
4/25 5:30pm 284 8 G 12 59° 69% - - 49° 61.5° 48.5° - - -
4/25 5:20pm 276 8 G 15 59° 69% - - 49° 61.5° 48.5° - - -
4/25 5:10pm 263 9 G 14 59° 69% - - 49° 61.5° 48.5° - - -
4/25 5:00pm 274 7 G 14 59° 68% - - 49° 61.5° 48.5° - - -
4/25 4:50pm 274 7 G 12 60° 65% - - 48° 61.5° 48.5° - - -
4/25 4:40pm 288 6 G 12 60° 65% - - 48° 61.5° 48.5° - - -
4/25 4:30pm 281 6 G 12 60° 65% - - 49° 61.5° 48.5° - - -
4/25 4:20pm 275 6 G 11 60° 65% - - 49° 61.5° 48.5° - - -
4/25 4:10pm 278 8 G 12 60° 66% - - 49° 61.5° 48.5° - - -
4/25 4:00pm 272 7 G 12 60° 66% - - 49° 61.5° 48.5° - - -
4/25 3:50pm 289 7 G 11 60° 67% - - 49° 61.5° 48.5° - - -
4/25 3:40pm 280 9 G 14 59° 68% - - 49° 61.5° 48.5° - - -
4/25 3:30pm 281 8 G 14 60° 68% - - 49° 61.5° 48.5° - - -
4/25 3:20pm 289 9 G 14 60° 67% - - 49° 61.5° 48.5° - - -
4/25 3:10pm 268 10 G 14 60° 68% - - 49° 61.5° 48.5° - - -
4/25 3:00pm 263 9 G 14 60° 67% - - 49° 61.5° 48.5° - - -
4/25 2:50pm 254 7 G 13 60° 66% - - 49° 61.5° 48.5° - - -
4/25 2:40pm 258 6 G 11 60° 65% - - 48° 61.5° 48.5° - - -
4/25 2:30pm 274 7 G 13 60° 64% - - 48° 61.5° 48.5° - - -
4/25 2:20pm 256 8 G 14 61° 64% - - 48° 61.5° 48.5° - - -
4/25 2:10pm 259 8 G 15 60° 64% - - 48° 61.3° 48.5° - - -
4/25 2:00pm 259 7 G 12 60° 65% - - 48° 61.3° 48.5° - - -
4/25 1:50pm 264 10 G 17 60° 65% - - 48° 61.3° 48.5° - - -
4/25 1:40pm 266 9 G 16 60° 63% - - 48° 61.3° 48.5° - - -
4/25 1:30pm 273 9 G 15 60° 61% - - 47° 61.3° 48.5° - - -
4/25 1:20pm 258 7 G 14 60° 59% - - 46° 61.3° 48.5° - - -
4/25 1:10pm 270 9 G 17 60° 59% - - 46° 61.2° 48.5° - - -
4/25 1:00pm 257 9 G 16 59° 62% - - 46° 60.3° 48.5° - - -
4/25 12:50pm 269 6 G 12 59° 63% - - 46° 60.3° 48.5° - - -
4/25 12:40pm 270 9 G 16 59° 63% - - 46° 60.3° 48.5° - - -
4/25 12:30pm 277 10 G 18 60° 60% - - 46° 60.3° 48.5° - - -
4/25 12:20pm 275 8 G 16 59° 61% - - 46° 60.1° 48.5° - - -
4/25 12:10pm 278 7 G 15 59° 61% - - 45° 59.6° 48.5° - - -
4/25 12:00pm 264 8 G 17 59° 60% - - 45° 59.5° 48.5° - - -
4/25 11:50am 286 9 G 17 58° 61% - - 45° 59.5° 48.5° - - -
4/25 11:40am 271 8 G 13 58° 64% - - 46° 59° 48.5° - - -
4/25 11:30am 270 8 G 13 57° 65% - - 46° 57.9° 48.5° - - -
4/25 11:20am 263 5 G 10 57° 68% - - 47° 57.8° 48.5° - - -
4/25 11:10am 251 7 G 13 56° 69% - - 46° 57.3° 48.5° - - -
4/25 11:00am 260 7 G 12 57° 69% - - 46° 57.3° 48.5° - - -
4/25 10:50am 274 7 G 15 56° 68% - - 45° 56.8° 48.5° - - -
4/25 10:40am 268 6 G 11 56° 71% - - 47° 56.5° 48.5° - - -
4/25 10:30am 254 7 G 11 55° 75% - - 47° 56.1° 48.5° - - -
4/25 10:20am 256 6 G 11 54° 76% - - 47° 56.1° 48.5° - - -
4/25 10:10am 250 5 G 7 55° 72% - - 46° 56.1° 48.5° - - -
4/25 10:00am 247 5 G 10 54° 77% - - 47° 56.1° 48.5° - - -
4/25 9:50am 203 4 G 8 55° 76% - - 48° 56.1° 48.5° - - -
4/25 9:40am 214 4 G 8 54° 79% - - 47° 55.5° 48.5° - - -
4/25 9:30am 240 4 G 8 54° 78% - - 48° 55.5° 48.5° - - -
4/25 9:20am 246 5 G 9 52° 85% - - 48° 54.3° 48.5° - - -
4/25 9:10am 253 6 G 12 53° 84% - - 48° 54.3° 48.5° - - -
4/25 9:00am 257 6 G 10 52° 88% - - 49° 52.8° 48.5° - - -
4/25 8:50am 260 6 G 10 51° 89% - - 48° 51.9° 48.5° - - -
4/25 8:40am 260 6 G 9 51° 90% - - 48° 51.9° 48.5° - - -
4/25 8:30am 250 5 G 9 51° 91% - - 49° 51.9° 48.5° - - -
4/25 8:20am 243 4 G 8 51° 92% - - 49° 51.6° 48.5° - - -
4/25 8:10am 257 5 G 9 50° 94% - - 49° 51° 48.5° - - -
4/25 8:00am 264 6 G 9 50° 95% - - 49° 50.7° 48.5° - - -
4/25 7:50am 258 5 G 10 50° 96% - - 49° 50.4° 48.5° - - -
4/25 7:40am 260 5 G 7 50° 96% - - 49° 50.4° 48.5° - - -
4/25 7:30am 257 5 G 8 50° 97% - - 49° 50.4° 48.5° - - -
4/25 7:20am 233 3 G 6 50° 97% - - 49° 50.4° 48.5° - - -
4/25 7:10am 238 3 G 7 49° 97% - - 48° 50.4° 48.5° - - -
4/25 7:00am 255 4 G 8 49° 97% - - 48° 50.4° 48.5° - - -
4/25 6:50am 264 5 G 8 49° 97% - - 48° 50.4° 48.5° - - -
4/25 6:40am 259 5 G 8 49° 96% - - 48° 50.4° 48.5° - - -
4/25 6:30am 239 4 G 8 49° 96% - - 48° 50.4° 48.5° - - -
4/25 6:20am 247 4 G 7 49° 96% - - 48° 50.4° 48.5° - - -
4/25 6:10am 255 4 G 9 49° 96% - - 48° 50.4° 48.5° - - -
4/25 6:00am 259 3 G 6 49° 96% - - 48° 50.4° 48.5° - - -
4/25 5:50am 259 3 G 5 49° 96% - - 48° 50.4° 48.5° - - -
4/25 5:40am 244 3 G 7 49° 96% - - 48° 50.4° 48.5° - - -
4/25 5:30am 233 3 G 7 49° 96% - - 48° 50.4° 48.5° - - -
4/25 5:20am 233 3 G 6 49° 96% - - 48° 50.4° 48.5° - - -
4/25 5:10am 261 3 G 6 49° 96% - - 48° 50.4° 48.5° - - -
4/25 5:00am 253 3 G 5 49° 95% - - 48° 50.4° 48.5° - - -
4/25 4:50am 218 4 G 8 49° 95% - - 48° 50.4° 48.5° - - -
4/25 4:40am 255 3 G 6 49° 95% - - 48° 50.4° 48.5° - - -
4/25 4:30am 254 3 G 6 49° 96% - - 48° 50.4° 48.5° - - -
4/25 4:20am 213 3 G 6 49° 96% - - 48° 50.4° 48.5° - - -
4/25 4:10am 255 6 G 9 49° 97% - - 48° 50.4° 48.5° - - -
4/25 4:00am 251 4 G 9 49° 97% - - 48° 50.4° 48.5° - - -
4/25 3:50am 252 5 G 10 49° 97% - - 48° 50.4° 48.6° - - -
4/25 3:40am 210 5 G 11 49° 97% - - 48° 50.4° 48.6° - - -
4/25 3:30am 223 5 G 10 49° 97% - - 48° 50.4° 48.8° - - -
4/25 3:20am 224 5 G 12 49° 97% - - 48° 50.4° 48.8° - - -
4/25 3:10am 240 3 G 6 49° 96% - - 48° 50.4° 48.8° - - -
4/25 3:00am 261 6 G 11 49° 96% - - 48° 50.4° 48.8° - - -
4/25 2:50am 256 6 G 10 49° 95% - - 48° 50.4° 48.8° - - -
4/25 2:40am 247 4 G 8 49° 95% - - 48° 50.4° 48.8° - - -
4/25 2:30am 256 5 G 10 49° 94% - - 48° 50.4° 48.8° - - -
4/25 2:20am 223 4 G 8 49° 94% - - 48° 50.4° 48.8° - - -
4/25 2:10am 223 4 G 8 49° 94% - - 48° 50.4° 48.8° - - -
4/25 2:00am 241 5 G 9 49° 93% - - 48° 50.4° 48.8° - - -
4/25 1:50am 209 5 G 9 49° 94% - - 48° 50.4° 48.8° - - -
4/25 1:40am 205 6 G 11 49° 95% - - 48° 50.4° 48.8° - - -
4/25 1:30am 233 3 G 10 49° 95% - - 48° 50.4° 48.9° - - -
4/25 1:20am 244 4 G 10 49° 95% - - 48° 50.4° 48.9° - - -
4/25 1:10am 196 7 G 12 49° 94% - - 48° 50.4° 49.1° - - -
4/25 1:00am 243 4 G 9 50° 93% - - 48° 50.4° 49.3° - - -
4/25 12:50am 261 3 G 6 50° 92% - - 48° 50.4° 49.3° - - -
4/25 12:40am 197 3 G 6 50° 91% - - 47° 50.4° 49.3° - - -
4/25 12:30am 196 4 G 10 50° 92% - - 48° 50.3° 49.3° - - -
4/25 12:20am 212 3 G 8 50° 92% - - 48° 50.3° 49.3° - - -
4/25 12:10am 203 5 G 8 50° 93% - - 48° 50.2° 49.3° - - -
4/25 12:00am 182 9 G 14 50° 94% - - 48° 65.7° 46.1° - - -
4/24 11:50pm 197 5 G 14 50° 95% - - 48° 65.7° 46.1° - - -
4/24 11:40pm 249 6 G 11 50° 95% - - 48° 65.7° 46.1° - - -
4/24 11:30pm 259 7 G 12 50° 95% - - 49° 65.7° 46.1° - - -
4/24 11:20pm 260 8 G 12 50° 95% - - 49° 65.7° 46.1° - - -
4/24 11:10pm 263 7 G 11 50° 95% - - 49° 65.7° 46.1° - - -
4/24 11:00pm 262 7 G 11 50° 95% - - 49° 65.7° 46.1° - - -
4/24 10:50pm 260 6 G 10 51° 94% - - 49° 65.7° 46.1° - - -
4/24 10:40pm 255 5 G 8 51° 93% - - 49° 65.7° 46.1° - - -
4/24 10:30pm 242 4 G 8 51° 93% - - 49° 65.7° 46.1° - - -
4/24 10:20pm 250 4 G 7 51° 93% - - 49° 65.7° 46.1° - - -
4/24 10:10pm 246 2 G 5 51° 93% - - 49° 65.7° 46.1° - - -
4/24 10:00pm 259 5 G 8 51° 93% - - 49° 65.7° 46.1° - - -
4/24 9:50pm 259 4 G 7 51° 92% - - 49° 65.7° 46.1° - - -
4/24 9:40pm 255 3 G 6 52° 91% - - 49° 65.7° 46.1° - - -
4/24 9:30pm 243 2 G 5 52° 90% - - 49° 65.7° 46.1° - - -
4/24 9:20pm 217 3 G 6 52° 91% - - 49° 65.7° 46.1° - - -
4/24 9:10pm 202 3 G 6 52° 92% - - 49° 65.7° 46.1° - - -
4/24 9:00pm 242 3 G 5 52° 92% - - 50° 65.7° 46.1° - - -
4/24 8:50pm 256 5 G 7 52° 92% - - 50° 65.7° 46.1° - - -
4/24 8:40pm 261 6 G 9 52° 91% - - 50° 65.7° 46.1° - - -
4/24 8:30pm 258 7 G 11 52° 91% - - 50° 65.7° 46.1° - - -
4/24 8:20pm 261 5 G 9 53° 89% - - 50° 65.7° 46.1° - - -
4/24 8:10pm 245 4 G 8 53° 89% - - 50° 65.7° 46.1° - - -
4/24 8:00pm 259 5 G 8 53° 88% - - 50° 65.7° 46.1° - - -
4/24 7:50pm 256 6 G 10 54° 88% - - 50° 65.7° 46.1° - - -
4/24 7:40pm 255 5 G 10 54° 86% - - 50° 65.7° 46.1° - - -
4/24 7:30pm 261 7 G 12 54° 86% - - 50° 65.7° 46.1° - - -
4/24 7:20pm 258 6 G 10 54° 85% - - 50° 65.7° 46.1° - - -
4/24 7:10pm 257 5 G 10 55° 83% - - 50° 65.7° 46.1° - - -
4/24 7:00pm 258 5 G 10 55° 83% - - 50° 65.7° 46.1° - - -
4/24 6:50pm 256 5 G 10 55° 82% - - 50° 65.7° 46.1° - - -
4/24 6:40pm 258 6 G 10 55° 82% - - 50° 65.7° 46.1° - - -
4/24 6:30pm 258 7 G 12 56° 81% - - 50° 65.7° 46.1° - - -
4/24 6:20pm 260 7 G 12 56° 79% - - 50° 65.7° 46.1° - - -
4/24 6:10pm 259 6 G 12 57° 76% - - 49° 65.7° 46.1° - - -
4/24 6:00pm 260 8 G 12 57° 76% - - 50° 65.7° 46.1° - - -